Time;durP1;ratioP1;P1;durP2;ratioP2;P2;SDS_P1;SDS_P2;PMS_P1;PMS_P2;Temp;Humidity;BMP_temperature;BMP_pressure;BME280_temperature;BME280_humidity;BME280_pressure;Samples;Min_cycle;Max_cycle;Signal;HPM_P1;HPM_P2
2023/08/29 00:00:05;;;;;;;9.07;4.10;;;;;;;22.70;58.27;99524.06;6126189;23;20316;-78
2023/08/29 00:02:33;;;;;;;4.97;1.80;;;;;;;22.81;59.78;99533.16;6093181;23;20362;-76
2023/08/29 00:05:06;;;;;;;7.93;3.90;;;;;;;22.79;57.48;99519.06;6092071;23;20096;-77
2023/08/29 00:07:33;;;;;;;7.10;3.88;;;;;;;22.94;58.46;99537.47;6079003;23;20087;-78
2023/08/29 00:10:07;;;;;;;6.60;3.22;;;;;;;23.00;58.13;99536.53;6082760;23;20056;-77
2023/08/29 00:12:37;;;;;;;;;;;;;;;22.46;56.72;99487.38;6074605;23;20104;-77
2023/08/29 00:15:07;;;;;;;;;;;;;;;22.46;59.18;99498.19;6101077;23;19947;-79
2023/08/29 00:17:37;;;;;;;8.07;3.15;;;;;;;22.68;57.70;99544.31;6122519;23;19940;-76
2023/08/29 00:20:05;;;;;;;6.63;3.08;;;;;;;22.80;58.15;99554.00;6124767;23;20455;-78
2023/08/29 00:22:33;;;;;;;9.52;2.67;;;;;;;22.75;58.72;99550.38;6106260;23;20018;-76
2023/08/29 00:25:01;;;;;;;9.35;3.38;;;;;;;22.75;57.11;99550.38;6129293;23;20519;-76
2023/08/29 00:27:28;;;;;;;8.32;2.85;;;;;;;22.83;57.25;99548.09;6121842;23;20083;-76
2023/08/29 00:29:56;;;;;;;7.85;2.78;;;;;;;22.73;56.02;99539.78;6120790;23;20026;-77
2023/08/29 00:32:23;;;;;;;3.20;1.90;;;;;;;22.47;57.17;99506.03;6120103;23;20316;-76
2023/08/29 00:34:50;;;;;;;5.68;2.15;;;;;;;22.68;57.72;99530.78;6132017;23;20021;-77
2023/08/29 00:37:17;;;;;;;4.95;2.17;;;;;;;22.70;56.31;99536.78;6111573;23;20098;-77
2023/08/29 00:39:44;;;;;;;5.35;2.50;;;;;;;22.19;58.35;99475.19;6119105;23;20021;-76
2023/08/29 00:42:15;;;;;;;4.35;2.20;;;;;;;22.74;57.27;99552.25;6090058;23;20068;-78
2023/08/29 00:44:45;;;;;;;2.58;1.67;;;;;;;22.71;56.99;99555.44;6129989;23;20033;-79
2023/08/29 00:47:16;;;;;;;4.43;2.22;;;;;;;22.70;57.75;99553.00;6073325;23;20021;-79
2023/08/29 00:49:51;;;;;;;5.30;1.58;;;;;;;22.73;57.57;99557.91;6067568;23;20129;-78
2023/08/29 00:52:23;;;;;;;4.85;1.60;;;;;;;22.70;56.73;99558.41;6067515;23;20149;-77
2023/08/29 00:54:54;;;;;;;5.68;1.88;;;;;;;22.65;56.10;99551.00;6068564;23;20264;-76
2023/08/29 00:57:23;;;;;;;3.10;1.67;;;;;;;22.73;59.50;99561.44;6094255;23;20017;-76
2023/08/29 00:59:49;;;;;;;3.55;1.65;;;;;;;22.63;57.11;99558.53;6119542;23;20025;-78
2023/08/29 01:02:19;;;;;;;4.88;1.77;;;;;;;22.45;57.56;99543.31;6126326;23;20032;-77
2023/08/29 01:04:46;;;;;;;3.60;1.80;;;;;;;22.42;58.01;99551.91;6111068;23;20281;-77
2023/08/29 01:07:13;;;;;;;4.88;1.85;;;;;;;22.53;58.37;99552.94;6128990;23;20345;-77
2023/08/29 01:09:40;;;;;;;2.10;1.90;;;;;;;22.59;56.47;99549.25;6122320;23;20104;-77
2023/08/29 01:12:20;;;;;;;2.25;1.60;;;;;;;22.39;57.20;99546.97;6133577;23;20374;-77
2023/08/29 01:14:51;;;;;;;2.80;1.80;;;;;;;22.35;58.15;99541.22;6137913;23;20092;-79
2023/08/29 01:17:44;;;;;;;5.90;1.77;;;;;;;22.09;58.67;99530.91;6130987;23;20406;-78
2023/08/29 01:20:16;;;;;;;3.83;1.48;;;;;;;22.12;61.02;99541.25;6131686;23;20021;-77
2023/08/29 01:23:19;;;;;;;3.97;2.45;;;;;;;22.19;60.01;99547.34;6106756;23;20025;-77
2023/08/29 01:25:47;;;;;;;4.63;2.55;;;;;;;22.21;60.48;99557.94;6133257;23;20017;-77
2023/08/29 01:28:14;;;;;;;4.75;2.33;;;;;;;22.06;61.77;99548.41;6125318;23;20308;-77
2023/08/29 01:30:42;;;;;;;2.90;2.00;;;;;;;22.06;61.87;99547.59;6084914;23;20092;-78
2023/08/29 01:33:09;;;;;;;2.78;1.15;;;;;;;22.05;62.57;99541.38;6112926;23;20405;-78
2023/08/29 01:35:42;;;;;;;3.88;2.13;;;;;;;22.03;62.21;99548.09;6112770;23;20104;-76
2023/08/29 01:38:09;;;;;;;3.33;2.03;;;;;;;21.74;62.45;99504.75;6113268;23;20021;-77
2023/08/29 01:40:37;;;;;;;3.85;2.03;;;;;;;21.85;63.01;99541.75;6133415;23;20024;-76
2023/08/29 01:43:05;;;;;;;4.55;2.47;;;;;;;21.53;63.19;99480.00;6114066;23;20794;-78
2023/08/29 01:45:35;;;;;;;3.33;2.58;;;;;;;21.71;62.36;99543.06;6133333;23;20017;-77
2023/08/29 01:48:05;;;;;;;5.78;2.65;;;;;;;21.46;62.87;99546.81;6118792;23;20416;-80
2023/08/29 01:50:34;;;;;;;4.38;2.28;;;;;;;21.32;65.10;99538.06;6137773;23;20402;-78
2023/08/29 01:53:04;;;;;;;3.63;1.92;;;;;;;21.29;65.15;99541.25;6125462;23;20025;-78
2023/08/29 01:55:32;;;;;;;3.25;2.40;;;;;;;21.19;65.00;99540.16;6128665;23;20317;-80
2023/08/29 01:58:03;;;;;;;3.33;1.95;;;;;;;21.18;64.76;99535.81;6123582;23;20512;-78
2023/08/29 02:00:31;;;;;;;8.50;2.13;;;;;;;21.07;65.74;99545.53;6125864;23;20256;-77
2023/08/29 02:02:59;;;;;;;4.25;2.65;;;;;;;20.96;66.02;99530.94;6122711;23;20490;-77
2023/08/29 02:05:26;;;;;;;7.13;2.80;;;;;;;21.02;65.47;99532.75;6141157;23;20020;-79
2023/08/29 02:07:53;;;;;;;2.97;1.92;;;;;;;21.05;66.69;99526.88;6166188;23;20075;-78
2023/08/29 02:10:20;;;;;;;5.35;1.80;;;;;;;20.65;66.13;99468.13;6113453;23;20095;-78
2023/08/29 02:12:47;;;;;;;2.83;1.88;;;;;;;21.13;67.11;99529.22;6141610;23;20519;-78
2023/08/29 02:15:14;;;;;;;4.70;2.10;;;;;;;21.14;65.76;99532.75;6108941;23;20021;-78
2023/08/29 02:17:48;;;;;;;4.38;2.03;;;;;;;21.06;66.22;99525.81;6132282;23;20048;-78
2023/08/29 02:20:15;;;;;;;3.30;2.13;;;;;;;21.24;66.19;99532.16;6130714;23;20024;-77
2023/08/29 02:22:43;;;;;;;3.28;1.92;;;;;;;21.16;66.64;99527.13;6132123;23;20017;-78
2023/08/29 02:25:10;;;;;;;5.18;2.42;;;;;;;21.07;67.67;99522.06;6139449;23;20084;-77
2023/08/29 02:27:37;;;;;;;4.22;1.92;;;;;;;21.12;68.11;99538.38;6138462;23;20028;-78
2023/08/29 02:30:05;;;;;;;2.70;1.48;;;;;;;20.87;67.39;99478.38;6114619;23;20017;-77
2023/08/29 02:32:34;;;;;;;4.05;2.17;;;;;;;21.25;67.26;99537.34;6133184;23;20052;-78
2023/08/29 02:35:06;;;;;;;4.72;2.50;;;;;;;21.13;66.86;99540.03;6123503;23;20045;-79
2023/08/29 02:37:34;;;;;;;3.40;2.13;;;;;;;20.77;67.32;99497.81;6138208;23;20021;-77
2023/08/29 02:40:07;;;;;;;5.00;2.10;;;;;;;20.88;67.62;99517.81;6134084;23;20060;-77
2023/08/29 02:42:35;;;;;;;3.15;2.85;;;;;;;21.05;67.40;99556.56;6122356;23;20031;-76
2023/08/29 02:45:09;;;;;;;5.40;2.70;;;;;;;20.95;68.24;99552.75;6126220;23;20038;-78
2023/08/29 02:47:37;;;;;;;3.17;2.40;;;;;;;20.95;68.63;99559.00;6119682;23;20021;-78
2023/08/29 02:50:07;;;;;;;6.68;3.35;;;;;;;20.91;68.32;99550.53;6127088;23;20246;-80
2023/08/29 02:52:34;;;;;;;5.43;2.88;;;;;;;20.94;68.68;99540.31;6124423;23;20032;-78
2023/08/29 02:55:08;;;;;;;3.92;3.13;;;;;;;21.02;68.24;99548.94;6121717;23;20021;-79
2023/08/29 02:57:38;;;;;;;6.10;2.60;;;;;;;20.98;68.00;99555.00;6135637;23;20470;-77
2023/08/29 03:00:06;;;;;;;6.43;2.80;;;;;;;20.98;67.40;99557.72;6105650;23;20086;-76
2023/08/29 03:02:40;;;;;;;5.68;3.25;;;;;;;20.86;68.64;99538.78;6141420;23;20229;-79
2023/08/29 03:05:07;;;;;;;3.30;2.75;;;;;;;21.02;69.13;99548.09;6137142;23;20445;-78
2023/08/29 03:07:34;;;;;;;2.53;2.33;;;;;;;21.13;68.76;99558.09;6141175;23;20025;-78
2023/08/29 03:10:02;;;;;;;3.70;2.42;;;;;;;21.07;68.24;99532.88;6124639;23;20021;-80
2023/08/29 03:12:36;;;;;;;;;;;;;;;21.22;67.15;99542.41;6125816;23;20021;-77
2023/08/29 03:15:03;;;;;;;3.45;2.20;;;;;;;21.15;67.78;99547.09;6139833;23;20024;-78
2023/08/29 03:17:30;;;;;;;1.60;1.40;;;;;;;20.77;67.69;99486.22;6130682;23;20214;-76
2023/08/29 03:19:57;;;;;;;3.58;2.03;;;;;;;21.31;67.85;99546.38;6116197;23;20027;-77
2023/08/29 03:22:25;;;;;;;3.58;1.52;;;;;;;21.34;66.83;99543.25;6137653;23;20027;-77
2023/08/29 03:24:52;;;;;;;2.85;1.85;;;;;;;21.18;66.14;99527.72;6121757;23;20345;-78
2023/08/29 03:27:40;;;;;;;3.25;1.60;;;;;;;21.18;66.56;99536.63;6125914;23;20117;-78
2023/08/29 03:30:08;;;;;;;2.78;1.17;;;;;;;21.09;66.13;99528.06;6131094;23;20024;-77
2023/08/29 03:32:38;;;;;;;4.40;1.52;;;;;;;21.07;66.36;99519.38;6111878;23;20017;-79
2023/08/29 03:35:07;;;;;;;3.08;1.10;;;;;;;21.06;66.59;99538.47;6135874;23;20087;-78
2023/08/29 03:37:34;;;;;;;5.20;1.30;;;;;;;21.17;67.81;99539.59;6119548;23;20024;-77
2023/08/29 03:40:01;;;;;;;1.98;1.05;;;;;;;21.02;65.59;99489.56;6115550;23;20406;-77
2023/08/29 03:42:33;;;;;;;3.22;1.23;;;;;;;21.18;65.51;99533.13;6120794;23;20032;-78
2023/08/29 03:45:09;;;;;;;1.38;0.90;;;;;;;20.74;65.75;99475.91;6119119;23;20036;-78
2023/08/29 03:47:38;;;;;;;2.42;1.00;;;;;;;21.08;66.99;99526.41;6131090;23;20021;-76
2023/08/29 03:50:06;;;;;;;2.47;0.85;;;;;;;21.12;65.70;99522.19;6125326;23;20045;-78
2023/08/29 03:52:34;;;;;;;4.07;0.90;;;;;;;21.12;65.27;99516.81;6112801;23;20100;-78
2023/08/29 03:55:05;;;;;;;2.05;1.02;;;;;;;21.24;64.48;99532.16;6132348;23;20359;-77
2023/08/29 03:57:32;;;;;;;3.65;1.00;;;;;;;21.03;64.37;99537.06;6133460;23;20021;-77
2023/08/29 04:00:06;;;;;;;0.75;0.60;;;;;;;21.00;64.86;99534.84;6152304;23;20104;-78
2023/08/29 04:02:36;;;;;;;1.45;0.82;;;;;;;20.97;64.57;99532.63;6131169;23;20024;-77
2023/08/29 04:05:17;;;;;;;3.00;1.27;;;;;;;20.89;64.25;99522.13;6127103;23;20032;-76
2023/08/29 04:07:45;;;;;;;4.10;1.00;;;;;;;20.73;64.69;99480.47;6124025;23;20528;-76
2023/08/29 04:10:13;;;;;;;2.67;0.98;;;;;;;21.00;64.34;99528.63;6146195;23;20060;-75
2023/08/29 04:12:40;;;;;;;1.92;0.90;;;;;;;20.91;64.62;99526.25;6093906;23;20763;-78
2023/08/29 04:15:08;;;;;;;1.13;0.75;;;;;;;20.97;64.42;99523.69;6133838;23;20828;-79
2023/08/29 04:17:35;;;;;;;2.50;0.90;;;;;;;20.73;63.84;99463.44;6112973;23;20096;-79
2023/08/29 04:20:08;;;;;;;5.38;1.08;;;;;;;20.89;63.45;99484.38;6096657;23;20033;-78
2023/08/29 04:22:35;;;;;;;2.00;1.00;;;;;;;21.20;63.42;99517.53;6138376;23;20480;-79
2023/08/29 04:25:06;;;;;;;2.45;0.93;;;;;;;21.20;64.09;99523.72;6121613;23;20113;-78
2023/08/29 04:27:37;;;;;;;1.58;0.85;;;;;;;21.21;63.21;99525.38;6139686;23;20017;-79
2023/08/29 04:30:05;;;;;;;3.97;1.10;;;;;;;21.20;62.40;99517.53;6127909;23;20021;-79
2023/08/29 04:32:34;;;;;;;5.15;1.10;;;;;;;21.15;63.31;99520.09;6121659;23;20025;-78
2023/08/29 04:35:08;;;;;;;1.20;0.90;;;;;;;21.03;63.68;99502.00;6125840;23;20024;-79
2023/08/29 04:37:35;;;;;;;2.10;1.20;;;;;;;21.28;63.10;99520.69;6125562;23;20083;-79
2023/08/29 04:40:06;;;;;;;3.45;1.02;;;;;;;20.91;63.36;99463.38;6104765;23;20505;-79
2023/08/29 04:42:33;;;;;;;1.37;0.83;;;;;;;21.40;64.24;99528.00;6128873;23;20053;-81
2023/08/29 04:45:06;;;;;;;1.60;0.73;;;;;;;20.96;64.37;99446.50;6137239;23;20265;-77
2023/08/29 04:47:38;;;;;;;3.22;1.23;;;;;;;21.60;61.21;99543.88;6119663;23;20188;-78
2023/08/29 04:50:06;;;;;;;1.95;1.20;;;;;;;21.53;61.52;99547.53;6126937;23;20017;-77
2023/08/29 04:52:33;;;;;;;1.50;1.02;;;;;;;21.40;62.52;99550.44;6139031;23;20024;-78
2023/08/29 04:55:00;;;;;;;8.02;1.13;;;;;;;21.01;63.15;99493.31;6114470;23;20028;-79
2023/08/29 04:57:29;;;;;;;3.72;1.25;;;;;;;21.28;63.12;99552.25;6117422;23;20025;-76
2023/08/29 05:00:00;;;;;;;7.30;1.30;;;;;;;21.28;62.32;99547.69;6116262;23;20025;-79
2023/08/29 05:02:32;;;;;;;2.78;1.05;;;;;;;21.28;62.95;99563.06;6088387;23;20037;-80
2023/08/29 05:05:06;;;;;;;1.95;1.13;;;;;;;21.29;63.99;99559.31;6139480;23;20079;-79
2023/08/29 05:07:33;;;;;;;3.13;1.25;;;;;;;21.29;62.94;99564.72;6104257;23;20092;-77
2023/08/29 05:10:00;;;;;;;3.33;1.15;;;;;;;21.18;62.24;99568.19;6110283;23;20481;-78
2023/08/29 05:12:28;;;;;;;1.92;1.30;;;;;;;21.06;63.10;99565.47;6125242;23;20503;-78
2023/08/29 05:14:56;;;;;;;3.67;1.20;;;;;;;21.01;63.95;99554.53;6091051;23;20033;-80
2023/08/29 05:17:24;;;;;;;3.00;1.30;;;;;;;20.99;63.38;99549.38;6076968;23;20021;-78
2023/08/29 05:19:51;;;;;;;2.25;0.90;;;;;;;21.04;64.14;99552.19;6094883;23;20021;-79
2023/08/29 05:22:19;;;;;;;1.65;1.10;;;;;;;21.04;63.94;99545.97;6114315;23;20067;-78
2023/08/29 05:24:46;;;;;;;1.52;1.38;;;;;;;21.00;63.37;99542.94;6121540;23;20024;-78
2023/08/29 05:27:14;;;;;;;2.38;1.05;;;;;;;21.15;64.45;99557.88;6105981;23;20017;-80
2023/08/29 05:29:41;;;;;;;1.52;1.17;;;;;;;20.87;63.05;99513.44;6099788;23;20052;-78
2023/08/29 05:32:10;;;;;;;4.63;1.30;;;;;;;20.66;64.42;99515.63;6148487;23;20374;-79
2023/08/29 05:34:45;;;;;;;3.78;1.17;;;;;;;20.83;63.69;99529.28;6100147;23;20033;-79
2023/08/29 05:37:22;;;;;;;1.35;0.82;;;;;;;20.22;64.76;99450.25;6098498;23;20490;-78
2023/08/29 05:39:50;;;;;;;2.15;1.13;;;;;;;20.99;64.39;99576.34;6115124;23;20027;-78
2023/08/29 05:42:17;;;;;;;2.85;1.05;;;;;;;20.92;65.25;99559.44;6132689;23;20096;-79
2023/08/29 05:44:44;;;;;;;2.78;1.30;;;;;;;21.08;64.53;99564.19;6108566;23;20087;-79
2023/08/29 05:47:19;;;;;;;1.45;1.08;;;;;;;20.99;64.42;99549.38;6091132;23;20024;-80
2023/08/29 05:49:47;;;;;;;2.65;1.20;;;;;;;20.97;63.66;99562.28;6108226;23;20024;-78
2023/08/29 05:52:14;;;;;;;1.17;0.98;;;;;;;20.89;64.41;99559.91;6135002;23;20269;-80
2023/08/29 05:54:43;;;;;;;5.18;1.65;;;;;;;20.70;64.45;99548.31;6111061;23;20021;-79
2023/08/29 05:57:15;;;;;;;2.75;1.40;;;;;;;20.75;64.58;99563.81;6102325;23;20028;-80
2023/08/29 05:59:50;;;;;;;2.50;1.05;;;;;;;20.68;64.26;99559.38;6072492;23;20353;-79
2023/08/29 06:02:23;;;;;;;5.30;1.27;;;;;;;20.69;65.25;99560.19;6096957;23;20044;-78
2023/08/29 06:04:52;;;;;;;3.00;1.23;;;;;;;20.83;65.40;99550.84;6108030;23;20091;-74
2023/08/29 06:07:21;;;;;;;1.30;1.00;;;;;;;20.89;65.11;99557.19;6121532;23;20028;-77
2023/08/29 06:09:48;;;;;;;0.77;0.75;;;;;;;20.96;63.92;99554.41;6065096;23;20385;-78
2023/08/29 06:12:15;;;;;;;5.30;1.05;;;;;;;20.98;64.11;99563.91;6111916;23;20363;-78
2023/08/29 06:14:41;;;;;;;1.67;1.02;;;;;;;21.05;63.97;99559.25;6136301;23;20381;-82
2023/08/29 06:17:08;;;;;;;4.45;1.15;;;;;;;21.02;63.74;99564.28;6134308;23;20104;-78
2023/08/29 06:19:35;;;;;;;7.53;0.93;;;;;;;21.17;63.83;99571.97;6124115;23;20385;-78
2023/08/29 06:22:04;;;;;;;2.20;1.10;;;;;;;21.31;63.29;99584.19;6098560;23;20095;-79
2023/08/29 06:24:31;;;;;;;1.63;0.80;;;;;;;21.35;64.55;99585.38;6109271;23;20047;-77
2023/08/29 06:26:58;;;;;;;2.63;1.15;;;;;;;21.47;63.01;99580.84;6116265;23;20100;-77
2023/08/29 06:29:25;;;;;;;2.38;1.30;;;;;;;21.45;62.30;99593.75;6127756;23;20024;-78
2023/08/29 06:31:57;;;;;;;2.63;1.30;;;;;;;21.35;60.88;99579.97;6133692;23;20028;-80
2023/08/29 06:34:24;;;;;;;4.07;1.50;;;;;;;21.16;62.29;99590.00;6099471;23;20079;-78
2023/08/29 06:36:51;;;;;;;3.22;1.70;;;;;;;21.11;62.31;99589.88;6123624;23;20017;-78
2023/08/29 06:39:22;;;;;;;7.47;1.60;;;;;;;20.82;62.89;99551.88;6121716;23;20464;-80
2023/08/29 06:41:50;;;;;;;3.13;1.20;;;;;;;21.09;66.03;99586.59;6097652;23;20028;-79
2023/08/29 06:44:25;;;;;;;5.88;2.05;;;;;;;21.16;62.44;99591.91;6113018;23;20333;-79
2023/08/29 06:46:52;;;;;;;2.85;1.20;;;;;;;20.85;64.32;99548.75;6097264;23;20025;-79
2023/08/29 06:49:19;;;;;;;2.38;1.27;;;;;;;21.17;64.10;99593.56;6091270;23;20403;-78
2023/08/29 06:51:46;;;;;;;4.63;1.75;;;;;;;21.06;63.33;99582.47;6076613;23;20341;-79
2023/08/29 06:54:14;;;;;;;5.03;1.98;;;;;;;21.19;63.13;99602.22;6119424;23;20455;-78
2023/08/29 06:56:43;;;;;;;5.53;1.77;;;;;;;21.15;63.86;99606.44;6121479;23;20073;-79
2023/08/29 06:59:13;;;;;;;3.05;1.88;;;;;;;21.07;64.75;99586.03;6121805;23;20025;-77
2023/08/29 07:01:42;;;;;;;3.15;1.90;;;;;;;21.32;63.98;99607.44;6157461;23;20370;-77
2023/08/29 07:04:11;;;;;;;5.30;2.20;;;;;;;21.41;63.61;99606.09;6092423;23;20040;-78
2023/08/29 07:06:39;;;;;;;3.53;1.75;;;;;;;21.54;64.08;99605.84;6133189;23;20572;-78
2023/08/29 07:09:08;;;;;;;5.47;2.33;;;;;;;21.54;63.31;99611.25;6128837;23;20394;-80
2023/08/29 07:11:42;;;;;;;7.13;2.40;;;;;;;21.19;62.47;99559.88;6095506;23;20489;-79
2023/08/29 07:14:09;;;;;;;3.78;2.08;;;;;;;21.29;63.64;99581.72;6089022;23;20017;-79
2023/08/29 07:16:36;;;;;;;7.80;2.53;;;;;;;21.27;64.24;99615.41;6092862;23;20091;-76
2023/08/29 07:19:03;;;;;;;3.35;2.60;;;;;;;21.31;64.84;99609.31;6112569;23;20341;-80
2023/08/29 07:21:38;;;;;;;4.97;2.97;;;;;;;20.94;65.35;99537.63;6123080;23;20024;-79
2023/08/29 07:24:10;;;;;;;7.80;2.75;;;;;;;21.41;65.39;99603.38;6093808;23;20013;-78
2023/08/29 07:26:40;;;;;;;6.13;3.60;;;;;;;21.54;64.29;99605.03;6116638;23;20135;-77
2023/08/29 07:29:08;;;;;;;7.65;3.15;;;;;;;21.30;65.58;99602.25;6113458;23;20017;-79
2023/08/29 07:31:39;;;;;;;7.35;2.92;;;;;;;21.27;66.31;99585.72;6114307;23;20035;-79
2023/08/29 07:34:15;;;;;;;5.88;3.40;;;;;;;21.39;65.96;99597.38;6122169;23;20255;-79
2023/08/29 07:36:42;;;;;;;3.10;2.03;;;;;;;21.42;66.60;99602.31;6099531;23;20021;-78
2023/08/29 07:39:12;;;;;;;14.35;4.78;;;;;;;21.52;64.87;99609.84;6120822;23;20103;-80
2023/08/29 07:41:41;;;;;;;9.25;3.67;;;;;;;21.46;65.24;99603.50;6108922;23;20025;-79
2023/08/29 07:44:08;;;;;;;7.65;2.53;;;;;;;21.54;65.47;99616.66;6075474;23;20628;-77
2023/08/29 07:46:35;;;;;;;4.55;3.00;;;;;;;21.63;64.29;99625.25;6087788;23;20023;-79
2023/08/29 07:49:13;;;;;;;3.15;2.20;;;;;;;21.55;64.17;99630.97;6116991;23;20017;-79
2023/08/29 07:51:42;;;;;;;4.20;2.42;;;;;;;21.73;64.32;99638.19;6119716;23;20024;-78
2023/08/29 07:54:12;;;;;;;3.45;2.33;;;;;;;21.66;64.26;99637.47;6114387;23;20017;-79
2023/08/29 07:56:44;;;;;;;5.30;3.10;;;;;;;21.53;64.11;99635.78;6109684;23;20017;-80
2023/08/29 07:59:16;;;;;;;2.33;2.05;;;;;;;21.49;64.98;99637.31;6132187;23;20028;-79
2023/08/29 08:01:45;;;;;;;6.43;2.13;;;;;;;21.60;65.28;99638.38;6104439;23;20048;-78
2023/08/29 08:04:12;;;;;;;3.47;2.00;;;;;;;21.64;64.32;99643.09;6081098;23;20331;-80
2023/08/29 08:06:47;;;;;;;7.75;2.45;;;;;;;21.58;64.32;99644.03;6138824;23;20320;-79
2023/08/29 08:09:14;;;;;;;3.70;2.33;;;;;;;21.57;64.71;99641.56;6088054;23;20056;-80
2023/08/29 08:11:41;;;;;;;2.42;2.08;;;;;;;21.53;64.32;99650.13;6114571;23;20462;-79
2023/08/29 08:14:08;;;;;;;3.75;2.20;;;;;;;21.16;64.34;99625.09;6114260;23;20027;-78
2023/08/29 08:16:36;;;;;;;2.28;1.98;;;;;;;21.34;65.32;99651.22;6124296;23;20071;-79
2023/08/29 08:19:09;;;;;;;7.35;2.40;;;;;;;21.37;64.12;99655.34;6105981;23;20025;-80
2023/08/29 08:21:36;;;;;;;3.85;1.65;;;;;;;21.33;65.30;99653.06;6114820;23;20383;-78
2023/08/29 08:24:07;;;;;;;4.63;2.28;;;;;;;21.45;65.34;99657.72;6116690;23;20040;-79
2023/08/29 08:26:35;;;;;;;2.80;1.45;;;;;;;21.57;65.91;99646.97;6116505;23;20025;-78
2023/08/29 08:29:04;;;;;;;3.28;1.75;;;;;;;21.75;65.26;99660.41;6124000;23;20021;-79
2023/08/29 08:31:31;;;;;;;3.58;1.83;;;;;;;21.84;64.93;99661.66;6121540;23;20735;-78
2023/08/29 08:33:58;;;;;;;4.18;2.55;;;;;;;21.64;63.57;99631.47;6099831;23;20337;-79
2023/08/29 08:36:25;;;;;;;4.05;2.92;;;;;;;21.80;62.76;99651.56;6110421;23;20021;-78
2023/08/29 08:38:55;;;;;;;6.68;2.95;;;;;;;21.32;63.28;99612.84;6115909;23;20048;-79
2023/08/29 08:41:24;;;;;;;6.90;3.30;;;;;;;21.74;63.09;99667.66;6103124;23;20071;-79
2023/08/29 08:43:51;;;;;;;5.60;3.28;;;;;;;21.63;62.95;99662.25;6097779;23;20500;-78
2023/08/29 08:46:19;;;;;;;6.68;4.22;;;;;;;21.45;63.89;99672.03;6113970;23;20021;-78
2023/08/29 08:48:47;;;;;;;5.65;3.67;;;;;;;21.38;64.24;99667.75;6092380;23;20021;-79
2023/08/29 08:51:19;;;;;;;5.97;4.57;;;;;;;21.25;64.49;99674.19;6117581;23;20544;-79
2023/08/29 08:53:46;;;;;;;4.93;2.95;;;;;;;21.30;65.39;99658.13;6118126;23;20021;-77
2023/08/29 08:56:15;;;;;;;6.05;5.55;;;;;;;21.57;64.00;99679.38;6125920;23;20104;-79
2023/08/29 08:58:42;;;;;;;6.03;5.53;;;;;;;21.58;63.50;99667.50;6117440;23;20079;-78
2023/08/29 09:01:15;;;;;;;6.38;5.28;;;;;;;21.27;63.68;99623.50;6114529;23;20067;-78
2023/08/29 09:03:45;;;;;;;6.43;5.82;;;;;;;21.41;63.70;99638.47;6111493;23;20025;-79
2023/08/29 09:06:15;;;;;;;6.97;6.32;;;;;;;21.61;62.97;99677.84;6104023;23;20048;-79
2023/08/29 09:08:43;;;;;;;7.72;6.03;;;;;;;21.54;64.30;99680.66;6107566;23;20053;-79
2023/08/29 09:11:16;;;;;;;6.18;5.18;;;;;;;21.64;63.88;99688.19;6132105;23;20017;-80
2023/08/29 09:13:50;;;;;;;7.28;5.75;;;;;;;21.68;63.91;99682.09;6112318;23;20075;-79
2023/08/29 09:16:21;;;;;;;8.70;5.82;;;;;;;21.80;63.40;99687.53;6106549;23;20017;-79
2023/08/29 09:18:50;;;;;;;8.00;5.20;;;;;;;21.74;63.88;99677.63;6117034;23;20013;-79
2023/08/29 09:21:23;;;;;;;9.13;6.05;;;;;;;21.76;64.15;99678.22;6096576;23;20341;-80
2023/08/29 09:23:52;;;;;;;8.05;6.00;;;;;;;21.52;63.58;99617.94;6085929;23;20079;-79
2023/08/29 09:26:34;;;;;;;7.65;6.47;;;;;;;21.57;63.33;99614.56;6140726;23;20361;-79
2023/08/29 09:29:16;;;;;;;5.78;3.65;;;;;;;21.99;63.98;99634.19;6071658;23;20017;-77
2023/08/29 09:31:48;;;;;;;;;;;;;;;22.30;62.26;99684.41;6086527;23;20048;-79
2023/08/29 09:34:30;;;;;;;6.97;6.38;;;;;;;22.21;62.11;99669.63;6105771;23;19967;-78
2023/08/29 09:36:58;;;;;;;6.85;5.72;;;;;;;21.92;62.58;99650.53;6122121;23;20025;-80
2023/08/29 09:39:27;;;;;;;4.78;4.40;;;;;;;22.01;63.84;99675.31;6115637;23;20021;-78
2023/08/29 09:42:08;;;;;;;6.82;6.07;;;;;;;21.87;63.12;99642.31;6129676;23;20471;-79
2023/08/29 09:44:40;;;;;;;4.70;4.30;;;;;;;21.86;64.60;99600.13;6118279;23;20028;-79
2023/08/29 09:47:21;;;;;;;8.90;5.78;;;;;;;22.45;62.92;99677.69;6124611;23;20021;-79
2023/08/29 09:49:52;;;;;;;6.70;5.65;;;;;;;22.38;62.10;99675.94;6092327;23;20021;-80
2023/08/29 09:52:19;;;;;;;6.93;6.32;;;;;;;22.39;62.39;99688.41;6096006;23;20024;-80
2023/08/29 09:54:51;;;;;;;5.50;5.00;;;;;;;22.34;62.16;99672.06;6138423;23;20094;-79
2023/08/29 09:57:21;;;;;;;7.38;5.45;;;;;;;22.23;62.94;99672.88;6135747;23;20013;-79
2023/08/29 09:59:51;;;;;;;6.15;5.55;;;;;;;22.28;63.54;99670.31;6110766;23;20025;-78
2023/08/29 10:02:21;;;;;;;6.45;5.85;;;;;;;21.85;63.04;99585.00;6111529;23;20584;-80
2023/08/29 10:04:54;;;;;;;5.45;4.30;;;;;;;22.23;62.53;99629.63;6106843;23;20033;-79
2023/08/29 10:07:28;;;;;;;5.30;4.80;;;;;;;22.34;62.26;99642.31;6118899;23;20017;-79
2023/08/29 10:10:01;;;;;;;5.15;4.22;;;;;;;22.56;62.52;99680.38;6125845;23;20025;-78
2023/08/29 10:12:33;;;;;;;7.53;3.55;;;;;;;22.51;62.40;99679.47;6120869;23;20083;-80
2023/08/29 10:15:01;;;;;;;5.30;3.17;;;;;;;22.46;62.14;99679.34;6125902;23;20028;-79
2023/08/29 10:17:30;;;;;;;4.47;3.05;;;;;;;22.24;62.95;99676.44;6122066;23;20469;-78
2023/08/29 10:19:59;;;;;;;4.82;2.75;;;;;;;21.85;63.60;99643.59;6120999;23;20341;-77
2023/08/29 10:22:29;;;;;;;4.18;2.92;;;;;;;22.06;63.38;99682.72;6097541;23;20070;-80
2023/08/29 10:25:03;;;;;;;4.93;3.05;;;;;;;22.05;63.75;99698.13;6130653;23;20067;-79
2023/08/29 10:27:31;;;;;;;6.10;3.20;;;;;;;21.95;63.95;99671.69;6115015;23;20092;-78
2023/08/29 10:29:58;;;;;;;3.67;2.92;;;;;;;21.87;64.77;99644.16;6096518;23;20063;-79
2023/08/29 10:32:27;;;;;;;4.85;3.15;;;;;;;22.16;63.93;99689.22;6122989;23;20491;-79
2023/08/29 10:34:54;;;;;;;6.03;2.88;;;;;;;22.09;64.28;99671.44;6114843;23;20027;-78
2023/08/29 10:37:22;;;;;;;7.00;3.42;;;;;;;21.92;64.47;99647.84;6126879;23;20025;-78
2023/08/29 10:39:50;;;;;;;7.10;3.50;;;;;;;22.18;64.24;99680.84;6102310;23;20059;-78
2023/08/29 10:42:18;;;;;;;7.05;3.80;;;;;;;21.97;64.39;99674.97;6100676;23;20029;-78
2023/08/29 10:44:46;;;;;;;10.48;3.17;;;;;;;22.04;64.94;99688.38;6115002;23;20025;-78
2023/08/29 10:47:30;;;;;;;5.72;2.90;;;;;;;22.09;64.80;99699.31;6113004;23;20323;-80
2023/08/29 10:50:02;;;;;;;9.77;3.92;;;;;;;21.61;64.71;99629.25;6125577;23;20453;-78
2023/08/29 10:52:50;;;;;;;5.30;3.47;;;;;;;21.99;65.93;99696.34;6110422;23;20162;-79
2023/08/29 10:55:32;;;;;;;7.05;3.60;;;;;;;22.06;66.29;99693.53;6124003;23;20461;-79
2023/08/29 10:58:35;;;;;;;7.93;3.33;;;;;;;21.99;66.25;99699.03;6140458;23;20063;-80
2023/08/29 11:01:06;;;;;;;6.55;3.40;;;;;;;21.67;65.93;99636.41;6120114;23;20055;-79
2023/08/29 11:03:49;;;;;;;4.97;3.10;;;;;;;21.61;66.03;99631.94;6125834;23;20061;-78
2023/08/29 11:06:25;;;;;;;4.45;2.90;;;;;;;22.00;65.76;99699.88;6144421;23;20021;-80
2023/08/29 11:09:22;;;;;;;6.15;3.38;;;;;;;21.82;65.58;99690.81;6144532;23;20342;-78
2023/08/29 11:12:05;;;;;;;4.35;3.03;;;;;;;21.79;66.21;99693.97;6140432;23;20100;-77
2023/08/29 11:14:53;;;;;;;5.53;3.40;;;;;;;21.48;66.35;99665.34;6106459;23;20024;-79
2023/08/29 11:17:24;;;;;;;6.82;3.08;;;;;;;20.65;66.85;99538.22;6120021;23;20457;-79
2023/08/29 11:19:53;;;;;;;7.30;3.40;;;;;;;21.76;66.61;99689.03;6108148;23;20021;-81
2023/08/29 11:22:28;;;;;;;7.00;3.35;;;;;;;21.73;66.72;99689.50;6123898;23;20106;-77
2023/08/29 11:24:59;;;;;;;6.78;3.10;;;;;;;21.59;66.55;99664.56;6130812;23;20393;-79
2023/08/29 11:27:29;;;;;;;7.53;3.83;;;;;;;21.45;66.25;99661.25;6119012;23;20067;-79
2023/08/29 11:30:02;;;;;;;7.38;3.35;;;;;;;21.72;66.75;99694.09;6115427;23;20095;-78
2023/08/29 11:32:52;;;;;;;6.30;3.97;;;;;;;21.70;66.53;99680.00;6150567;23;20353;-79
2023/08/29 11:35:23;;;;;;;6.60;3.53;;;;;;;21.86;66.52;99683.88;6116084;23;20021;-78
2023/08/29 11:37:56;;;;;;;5.35;3.75;;;;;;;21.96;66.24;99700.34;6128524;23;20029;-77
2023/08/29 11:40:23;;;;;;;10.55;3.90;;;;;;;22.12;66.10;99692.63;6126534;23;20079;-78
2023/08/29 11:43:11;;;;;;;7.03;3.33;;;;;;;22.21;65.44;99685.84;6098243;23;20025;-79
2023/08/29 11:46:04;;;;;;;5.00;3.80;;;;;;;22.28;64.98;99691.94;6104258;23;20463;-78
2023/08/29 11:48:32;;;;;;;10.65;5.70;;;;;;;22.27;65.20;99694.88;6125260;23;20097;-78